createdAt,value
2017-11-21T00:01:16.280Z,96535.23
2017-11-21T00:03:42.015Z,96534.42
2017-11-21T00:06:08.529Z,96532.74
2017-11-21T00:08:34.284Z,96536.94
2017-11-21T00:11:00.079Z,96532.30
2017-11-21T00:13:29.347Z,96532.81
2017-11-21T00:15:55.106Z,96535.19
2017-11-21T00:18:24.300Z,96546.34
2017-11-21T00:20:50.076Z,96551.47
2017-11-21T00:23:17.571Z,96553.94
2017-11-21T00:25:43.323Z,96568.22
2017-11-21T00:28:12.347Z,96574.81
2017-11-21T00:30:38.100Z,96581.39
2017-11-21T00:33:06.809Z,96578.16
2017-11-21T00:35:32.573Z,96577.30
2017-11-21T00:40:29.055Z,96585.84
2017-11-21T00:42:58.231Z,96574.13
2017-11-21T00:45:24.015Z,96578.20
2017-11-21T00:47:49.796Z,96581.67
2017-11-21T00:50:15.588Z,96579.56
2017-11-21T00:52:41.344Z,96578.31
2017-11-21T00:55:08.571Z,96578.80
2017-11-21T00:57:34.349Z,96578.33
2017-11-21T01:00:04.055Z,96580.97
2017-11-21T01:02:29.816Z,96584.00
2017-11-21T01:04:57.476Z,96580.05
2017-11-21T01:07:23.252Z,96578.33
2017-11-21T01:09:51.879Z,96584.55
2017-11-21T01:12:17.627Z,96589.13
2017-11-21T01:14:43.385Z,96585.84
2017-11-21T01:17:12.416Z,96576.52
2017-11-21T01:19:41.436Z,96584.02
2017-11-21T01:22:07.227Z,96588.77
2017-11-21T01:24:32.980Z,96592.47
2017-11-21T01:26:58.728Z,96581.95
2017-11-21T01:29:24.507Z,96582.02
2017-11-21T01:31:53.761Z,96584.98
2017-11-21T01:34:19.522Z,96582.51
2017-11-21T01:36:48.717Z,96580.73
2017-11-21T01:39:14.472Z,96587.59
2017-11-21T01:41:44.136Z,96583.83
2017-11-21T01:44:09.913Z,96585.48
2017-11-21T01:46:38.505Z,96581.97
2017-11-21T01:49:04.288Z,96591.05
2017-11-21T01:51:33.887Z,96588.34
2017-11-21T01:53:59.662Z,96583.04
2017-11-21T01:56:27.100Z,96588.85
2017-11-21T01:58:52.844Z,96586.31
2017-11-21T02:01:18.619Z,96593.11
2017-11-21T02:03:44.364Z,96590.08
2017-11-21T02:06:10.129Z,96582.50
2017-11-21T02:08:39.930Z,96588.99
2017-11-21T02:11:05.688Z,96583.25
2017-11-21T02:13:34.955Z,96586.95
2017-11-21T02:16:00.714Z,96592.56
2017-11-21T02:18:28.104Z,96588.27
2017-11-21T02:20:53.872Z,96591.89
2017-11-21T02:23:23.004Z,96586.97
2017-11-21T02:25:48.821Z,96583.02
2017-11-21T02:28:18.026Z,96578.82
2017-11-21T02:30:43.808Z,96578.31
2017-11-21T02:33:13.139Z,96580.83
2017-11-21T02:35:38.920Z,96586.36
2017-11-21T02:38:04.711Z,96585.05
2017-11-21T02:40:30.547Z,96588.70
2017-11-21T02:42:56.331Z,96591.59
2017-11-21T02:45:23.917Z,96589.23
2017-11-21T02:47:49.679Z,96586.59
2017-11-21T02:52:46.284Z,96580.19
2017-11-21T02:55:15.210Z,96586.72
2017-11-21T02:57:41.005Z,96582.41
2017-11-21T03:00:08.588Z,96574.56
2017-11-21T03:02:34.348Z,96573.22
2017-11-21T03:05:02.835Z,96575.80
2017-11-21T03:07:28.616Z,96579.55
2017-11-21T03:12:25.076Z,96573.86
2017-11-21T03:14:50.840Z,96575.03
2017-11-21T03:17:16.603Z,96578.22
2017-11-21T03:19:42.352Z,96576.55
2017-11-21T03:22:22.525Z,96573.33
2017-11-21T03:25:00.591Z,96578.76
2017-11-21T03:27:32.400Z,96583.87
2017-11-21T03:29:59.001Z,96583.48
2017-11-21T03:32:24.780Z,96582.05
2017-11-21T03:34:50.531Z,96583.18
2017-11-21T03:37:16.339Z,96591.73
2017-11-21T03:39:42.104Z,96590.53
2017-11-21T03:42:07.862Z,96583.05
2017-11-21T03:44:33.620Z,96578.98
2017-11-21T03:46:59.379Z,96584.03
2017-11-21T03:49:25.141Z,96591.33
2017-11-21T03:51:50.921Z,96590.45
2017-11-21T03:54:16.667Z,96588.67
2017-11-21T03:56:42.428Z,96587.55
2017-11-21T03:59:08.197Z,96593.28
2017-11-21T04:01:33.965Z,96592.52
2017-11-21T04:03:59.724Z,96601.41
2017-11-21T04:06:25.492Z,96601.23
2017-11-21T04:08:51.256Z,96605.98
2017-11-21T04:11:17.021Z,96607.39
2017-11-21T04:13:42.826Z,96605.88
2017-11-21T04:16:08.571Z,96603.46
2017-11-21T04:18:34.320Z,96607.45
2017-11-21T04:21:00.111Z,96612.62
2017-11-21T04:23:29.145Z,96616.37
2017-11-21T04:25:54.895Z,96612.55
2017-11-21T04:28:20.686Z,96620.36
2017-11-21T04:30:46.453Z,96614.50
2017-11-21T04:33:12.252Z,96624.05
2017-11-21T04:35:40.772Z,96617.51
2017-11-21T04:38:06.515Z,96615.84
2017-11-21T04:40:34.707Z,96618.42
2017-11-21T04:43:00.448Z,96622.81
2017-11-21T04:45:30.131Z,96621.89
2017-11-21T04:47:55.895Z,96623.02
2017-11-21T04:50:24.809Z,96624.45
2017-11-21T04:52:51.354Z,96614.47
2017-11-21T04:55:19.067Z,96627.41
2017-11-21T04:57:44.823Z,96621.70
2017-11-21T05:00:14.409Z,96621.59
2017-11-21T05:02:40.165Z,96630.39
2017-11-21T05:05:05.921Z,96623.91
2017-11-21T05:07:31.701Z,96614.06
2017-11-21T05:09:57.460Z,96617.23
2017-11-21T05:12:26.578Z,96612.87
2017-11-21T05:14:52.349Z,96608.01
2017-11-21T05:17:20.784Z,96609.74
2017-11-21T05:19:46.552Z,96596.11
2017-11-21T05:22:14.652Z,96604.70
2017-11-21T05:24:40.430Z,96603.09
2017-11-21T05:29:37.049Z,96598.58
2017-11-21T05:32:04.373Z,96605.94
2017-11-21T05:34:30.123Z,96596.52
2017-11-21T05:36:59.212Z,96595.23
2017-11-21T05:39:24.988Z,96598.30
2017-11-21T05:41:50.752Z,96603.73
2017-11-21T05:44:16.549Z,96605.84
2017-11-21T05:46:42.349Z,96606.59
2017-11-21T05:49:12.085Z,96609.66
2017-11-21T05:51:37.873Z,96607.34
2017-11-21T05:54:05.625Z,96610.14
2017-11-21T05:56:31.404Z,96609.81
2017-11-21T05:59:00.885Z,96613.09
2017-11-21T06:01:26.747Z,96610.89
2017-11-21T06:03:56.022Z,96617.73
2017-11-21T06:06:21.767Z,96611.09
2017-11-21T06:08:49.308Z,96601.66
2017-11-21T06:11:15.081Z,96596.48
2017-11-21T06:16:11.659Z,96593.41
2017-11-21T06:18:37.440Z,96596.00
2017-11-21T06:21:03.192Z,96602.03
2017-11-21T06:23:28.988Z,96597.67
2017-11-21T06:25:56.075Z,96614.74
2017-11-21T06:28:21.808Z,96614.80
2017-11-21T06:30:50.510Z,96618.78
2017-11-21T06:33:16.287Z,96615.34
2017-11-21T06:35:44.989Z,96618.72
2017-11-21T06:38:10.780Z,96618.48
2017-11-21T06:40:39.902Z,96606.91
2017-11-21T06:43:05.702Z,96611.84
2017-11-21T06:45:34.404Z,96614.81
2017-11-21T06:48:00.152Z,96601.69
2017-11-21T06:50:25.924Z,96611.95
2017-11-21T06:52:55.112Z,96613.17
2017-11-21T06:55:20.855Z,96618.19
2017-11-21T06:57:46.629Z,96611.16
2017-11-21T07:00:12.404Z,96614.24
2017-11-21T07:02:42.924Z,96628.41
2017-11-21T07:05:08.696Z,96615.69
2017-11-21T07:07:36.092Z,96630.64
2017-11-21T07:10:01.856Z,96627.56
2017-11-21T07:12:30.452Z,96620.11
2017-11-21T07:14:56.215Z,96625.35
2017-11-21T07:19:52.728Z,96626.63
2017-11-21T07:22:20.248Z,96628.31
2017-11-21T07:24:45.996Z,96623.10
2017-11-21T07:27:15.216Z,96621.72
2017-11-21T07:29:40.976Z,96632.78
2017-11-21T07:32:06.732Z,96632.47
2017-11-21T07:34:32.536Z,96622.97
2017-11-21T07:36:58.305Z,96625.94
2017-11-21T07:39:27.172Z,96634.26
2017-11-21T07:41:52.945Z,96629.38
2017-11-21T07:44:22.524Z,96638.98
2017-11-21T07:46:48.279Z,96638.97
2017-11-21T07:49:17.152Z,96643.62
2017-11-21T07:51:42.921Z,96645.39
2017-11-21T07:54:11.197Z,96647.45
2017-11-21T07:56:36.943Z,96646.78
2017-11-21T07:59:05.896Z,96643.00
2017-11-21T08:01:31.701Z,96645.47
2017-11-21T08:04:01.536Z,96638.99
2017-11-21T08:06:27.304Z,96634.15
2017-11-21T08:08:53.081Z,96634.20
2017-11-21T08:11:18.840Z,96636.30
2017-11-21T08:13:44.608Z,96634.08
2017-11-21T08:16:13.612Z,96631.82
2017-11-21T08:18:39.400Z,96638.31
2017-11-21T08:21:06.704Z,96633.89
2017-11-21T08:23:32.477Z,96629.31
2017-11-21T08:26:01.647Z,96634.58
2017-11-21T08:28:27.446Z,96642.23
2017-11-21T08:30:56.792Z,96625.61
2017-11-21T08:33:22.537Z,96650.48
2017-11-21T08:35:52.014Z,96646.72
2017-11-21T08:38:17.788Z,96649.53
2017-11-21T08:40:45.855Z,96644.47
2017-11-21T08:43:11.624Z,96650.61
2017-11-21T08:45:37.368Z,96648.80
2017-11-21T08:48:03.184Z,96644.80
2017-11-21T08:50:28.965Z,96655.63
2017-11-21T08:52:57.922Z,96662.95
2017-11-21T08:55:23.700Z,96658.53
2017-11-21T08:57:51.796Z,96668.84
2017-11-21T09:00:17.569Z,96665.32
2017-11-21T09:05:14.146Z,96668.66
2017-11-21T09:07:41.724Z,96661.66
2017-11-21T09:10:07.481Z,96651.23
2017-11-21T09:12:36.048Z,96642.51
2017-11-21T09:15:01.833Z,96634.88
2017-11-21T09:17:30.641Z,96624.50
2017-11-21T09:19:56.394Z,96618.19
2017-11-21T09:22:22.187Z,96615.98
2017-11-21T09:24:47.952Z,96622.38
2017-11-21T09:27:13.704Z,96625.83
2017-11-21T09:29:43.271Z,96614.39
2017-11-21T09:32:09.036Z,96616.87
2017-11-21T09:34:37.085Z,96617.20
2017-11-21T09:37:02.853Z,96622.52
2017-11-21T09:39:31.515Z,96624.08
2017-11-21T09:41:57.252Z,96631.55
2017-11-21T09:44:24.024Z,96612.93
2017-11-21T09:46:49.770Z,96620.78
2017-11-21T09:49:15.516Z,96620.31
2017-11-21T09:51:44.431Z,96620.83
2017-11-21T09:54:10.201Z,96625.36
2017-11-21T09:56:39.937Z,96626.23
2017-11-21T09:59:05.682Z,96619.87
2017-11-21T10:01:33.011Z,96627.05
2017-11-21T10:03:58.780Z,96619.13
2017-11-21T10:06:25.232Z,96619.83
2017-11-21T10:08:50.989Z,96618.43
2017-11-21T10:11:16.796Z,96614.67
2017-11-21T10:13:45.907Z,96610.34
2017-11-21T10:16:11.665Z,96604.48
2017-11-21T10:18:39.305Z,96605.38
2017-11-21T10:21:05.078Z,96604.13
2017-11-21T10:26:01.642Z,96601.83
2017-11-21T10:28:29.199Z,96604.72
2017-11-21T10:30:54.976Z,96600.63
2017-11-21T10:33:23.532Z,96602.97
2017-11-21T10:35:49.304Z,96600.56
2017-11-21T10:40:45.939Z,96605.50
2017-11-21T10:43:13.355Z,96597.55
2017-11-21T10:45:39.138Z,96605.40
2017-11-21T10:48:09.336Z,96602.48
2017-11-21T10:50:35.092Z,96594.27
2017-11-21T10:53:03.984Z,96587.00
2017-11-21T10:55:29.755Z,96583.66
2017-11-21T10:57:58.733Z,96586.09
2017-11-21T11:00:24.487Z,96586.34
2017-11-21T11:02:53.504Z,96574.84
2017-11-21T11:05:19.317Z,96562.09
2017-11-21T11:07:48.128Z,96560.20
2017-11-21T11:10:13.903Z,96563.64
2017-11-21T11:12:39.736Z,96555.22
2017-11-21T11:15:05.495Z,96556.91
2017-11-21T11:17:31.298Z,96561.97
2017-11-21T11:19:58.918Z,96556.22
2017-11-21T11:22:24.688Z,96569.63
2017-11-21T11:24:53.892Z,96565.09
2017-11-21T11:27:19.681Z,96568.84
2017-11-21T11:29:48.583Z,96569.89
2017-11-21T11:32:14.350Z,96568.63
2017-11-21T11:34:43.912Z,96568.79
2017-11-21T11:37:09.695Z,96570.20
2017-11-21T11:39:37.372Z,96569.73
2017-11-21T11:42:03.185Z,96565.59
2017-11-21T11:44:32.290Z,96561.80
2017-11-21T11:46:58.062Z,96562.67
2017-11-21T11:49:23.811Z,96549.03
2017-11-21T11:51:49.604Z,96549.14
2017-11-21T11:54:15.378Z,96545.48
2017-11-21T11:56:43.853Z,96539.63
2017-11-21T11:59:09.661Z,96540.25
2017-11-21T12:01:38.313Z,96541.97
2017-11-21T12:04:04.120Z,96536.67
2017-11-21T12:09:00.708Z,96527.66
2017-11-21T12:11:29.682Z,96528.77
2017-11-21T12:13:55.483Z,96528.34
2017-11-21T12:16:23.205Z,96523.44
2017-11-21T12:18:49.028Z,96518.98
2017-11-21T12:21:17.220Z,96513.27
2017-11-21T12:23:42.997Z,96515.53
2017-11-21T12:26:08.782Z,96507.56
2017-11-21T12:28:34.625Z,96520.07
2017-11-21T12:31:00.409Z,96507.93
2017-11-21T12:33:29.417Z,96504.94
2017-11-21T12:35:55.216Z,96501.84
2017-11-21T12:38:24.501Z,96495.47
2017-11-21T12:40:50.361Z,96500.09
2017-11-21T12:43:19.200Z,96499.89
2017-11-21T12:45:45.020Z,96501.66
2017-11-21T12:48:14.673Z,96498.18
2017-11-21T12:50:40.516Z,96506.32
2017-11-21T12:53:09.572Z,96498.03
2017-11-21T12:55:35.345Z,96507.31
2017-11-21T12:58:02.996Z,96494.23
2017-11-21T13:00:28.777Z,96498.25
2017-11-21T13:02:54.539Z,96503.00
2017-11-21T13:05:20.340Z,96504.20
2017-11-21T13:07:46.151Z,96509.68
2017-11-21T13:10:15.743Z,96510.09
2017-11-21T13:12:41.580Z,96498.64
2017-11-21T13:15:08.996Z,96505.72
2017-11-21T13:17:34.809Z,96495.12
2017-11-21T13:20:04.066Z,96495.91
2017-11-21T13:22:29.908Z,96500.19
2017-11-21T13:24:59.043Z,96502.70
2017-11-21T13:27:25.932Z,96504.60
2017-11-21T13:29:54.862Z,96503.47
2017-11-21T13:32:20.672Z,96503.87
2017-11-21T13:34:47.902Z,96500.66
2017-11-21T13:37:13.712Z,96492.39
2017-11-21T13:39:39.562Z,96494.84
2017-11-21T13:42:05.326Z,96493.92
2017-11-21T13:44:31.208Z,96488.55
2017-11-21T13:47:00.226Z,96496.13
2017-11-21T13:49:26.044Z,96497.03
2017-11-21T13:51:55.839Z,96494.22
2017-11-21T13:54:21.681Z,96507.33
2017-11-21T13:56:50.597Z,96492.69
2017-11-21T13:59:16.373Z,96492.02
2017-11-21T14:01:45.209Z,96485.64
2017-11-21T14:04:10.996Z,96487.96
2017-11-21T14:06:40.049Z,96483.23
2017-11-21T14:09:05.924Z,96480.25
2017-11-21T14:11:33.392Z,96479.45
2017-11-21T14:13:59.181Z,96481.94
2017-11-21T14:16:24.969Z,96480.52
2017-11-21T14:18:50.776Z,96480.43
2017-11-21T14:21:16.573Z,96473.00
2017-11-21T14:23:45.665Z,96469.12
2017-11-21T14:26:11.443Z,96477.09
2017-11-21T14:28:40.952Z,96481.11
2017-11-21T14:31:06.732Z,96472.25
2017-11-21T14:33:35.437Z,96465.52
2017-11-21T14:36:01.249Z,96459.32
2017-11-21T14:38:28.953Z,96469.67
2017-11-21T14:40:54.776Z,96467.78
2017-11-21T14:45:51.452Z,96476.83
2017-11-21T14:48:19.129Z,96477.42
2017-11-21T14:50:44.920Z,96473.38
2017-11-21T14:53:10.693Z,96474.68
2017-11-21T14:55:36.490Z,96477.11
2017-11-21T14:58:02.277Z,96471.32
2017-11-21T15:00:31.208Z,96471.42
2017-11-21T15:02:57.000Z,96478.02
2017-11-21T15:05:26.160Z,96465.33
2017-11-21T15:07:51.953Z,96472.84
2017-11-21T15:10:19.584Z,96475.23
2017-11-21T15:12:45.373Z,96471.78
2017-11-21T15:17:41.889Z,96461.30
2017-11-21T15:20:10.963Z,96463.20
2017-11-21T15:22:36.790Z,96464.42
2017-11-21T15:25:05.739Z,96461.80
2017-11-21T15:27:31.506Z,96459.44
2017-11-21T15:29:57.300Z,96463.31
2017-11-21T15:32:23.069Z,96462.84
2017-11-21T15:34:48.852Z,96460.81
2017-11-21T15:37:15.988Z,96465.77
2017-11-21T15:39:41.778Z,96472.15
2017-11-21T15:42:11.085Z,96374.83
2017-11-21T15:44:36.836Z,96469.32
2017-11-21T15:47:05.767Z,96463.41
2017-11-21T15:49:31.539Z,96458.25
2017-11-21T15:52:00.526Z,96452.80
2017-11-21T15:54:26.296Z,96446.46
2017-11-21T15:56:54.360Z,96448.08
2017-11-21T15:59:20.131Z,96444.16
2017-11-21T16:01:46.643Z,96446.43
2017-11-21T16:04:13.945Z,96448.47
2017-11-21T16:06:39.717Z,96444.44
2017-11-21T16:09:06.560Z,96454.13
2017-11-21T16:11:32.332Z,96454.05
2017-11-21T16:14:01.699Z,96451.37
2017-11-21T16:16:27.474Z,96439.84
2017-11-21T16:18:57.132Z,96442.16
2017-11-21T16:21:22.917Z,96446.06
2017-11-21T16:23:50.617Z,96452.30
2017-11-21T16:26:16.375Z,96445.41
2017-11-21T16:28:44.940Z,96447.55
2017-11-21T16:31:10.740Z,96451.59
2017-11-21T16:36:07.212Z,96450.75
2017-11-21T16:38:34.554Z,96461.94
2017-11-21T16:41:00.311Z,96462.59
2017-11-21T16:43:26.107Z,96464.81
2017-11-21T16:45:51.888Z,96469.59
2017-11-21T16:48:17.635Z,96470.75
2017-11-21T16:50:47.217Z,96472.05
2017-11-21T16:53:12.993Z,96472.33
2017-11-21T16:55:42.128Z,96463.94
2017-11-21T16:58:07.896Z,96460.06
2017-11-21T17:00:36.493Z,96458.74
2017-11-21T17:03:02.277Z,96464.39
2017-11-21T17:05:31.128Z,96463.52
2017-11-21T17:07:56.896Z,96470.49
2017-11-21T17:10:24.988Z,96472.08
2017-11-21T17:12:50.771Z,96476.77
2017-11-21T17:15:20.405Z,96481.91
2017-11-21T17:17:46.159Z,96491.84
2017-11-21T17:20:11.923Z,96495.69
2017-11-21T17:22:37.688Z,96501.59
2017-11-21T17:25:03.472Z,96510.57
2017-11-21T17:27:31.680Z,96514.80
2017-11-21T17:29:57.437Z,96509.82
2017-11-21T17:32:26.019Z,96503.05
2017-11-21T17:34:51.788Z,96496.11
2017-11-21T17:39:48.440Z,96478.50
2017-11-21T17:42:15.930Z,96471.27
2017-11-21T17:44:41.723Z,96463.20
2017-11-21T17:47:11.256Z,96471.52
2017-11-21T17:49:37.033Z,96471.86
2017-11-21T17:52:06.739Z,96465.91
2017-11-21T17:54:32.515Z,96465.09
2017-11-21T17:56:58.267Z,96463.87
2017-11-21T17:59:24.045Z,96465.91
2017-11-21T18:01:49.796Z,96463.25
2017-11-21T18:04:16.935Z,96466.56
2017-11-21T18:06:42.701Z,96465.16
2017-11-21T18:09:12.305Z,96473.44
2017-11-21T18:11:38.054Z,96484.44
2017-11-21T18:14:06.228Z,96481.89
2017-11-21T18:16:31.992Z,96482.19
2017-11-21T18:19:00.851Z,96488.80
2017-11-21T18:21:26.645Z,96487.63
2017-11-21T18:23:53.099Z,96489.90
2017-11-21T18:26:18.861Z,96489.72
2017-11-21T18:28:44.620Z,96486.81
2017-11-21T18:31:13.627Z,96488.65
2017-11-21T18:33:39.404Z,96475.82
2017-11-21T18:36:08.860Z,96477.56
2017-11-21T18:38:34.656Z,96482.90
2017-11-21T18:41:02.258Z,96484.99
2017-11-21T18:43:28.007Z,96484.41
2017-11-21T18:45:56.581Z,96476.81
2017-11-21T18:48:22.349Z,96475.89
2017-11-21T18:53:19.013Z,96473.12
2017-11-21T18:55:47.832Z,96463.36
2017-11-21T18:58:13.589Z,96457.50
2017-11-21T19:00:41.066Z,96456.11
2017-11-21T19:03:06.849Z,96460.41
2017-11-21T19:05:36.640Z,96457.27
2017-11-21T19:08:02.411Z,96465.34
2017-11-21T19:10:28.188Z,96468.23
2017-11-21T19:12:53.955Z,96474.66
2017-11-21T19:15:19.744Z,96477.36
2017-11-21T19:17:49.084Z,96477.13
2017-11-21T19:20:14.856Z,96473.73
2017-11-21T19:22:42.000Z,96476.33
2017-11-21T19:25:07.777Z,96481.27
2017-11-21T19:30:04.224Z,96485.75
2017-11-21T19:32:31.806Z,96496.23
2017-11-21T19:34:57.589Z,96484.20
2017-11-21T19:37:28.464Z,96487.77
2017-11-21T19:39:54.229Z,96477.00
2017-11-21T19:42:21.253Z,96470.35
2017-11-21T19:44:47.003Z,96463.14
2017-11-21T19:47:12.793Z,96467.62
2017-11-21T19:49:38.549Z,96470.19
2017-11-21T19:52:04.312Z,96475.36
2017-11-21T19:54:34.084Z,96480.78
2017-11-21T19:56:59.849Z,96477.31
2017-11-21T19:59:28.681Z,96473.38
2017-11-21T20:01:54.452Z,96474.22
2017-11-21T20:04:22.411Z,96472.17
2017-11-21T20:06:48.195Z,96464.48
2017-11-21T20:09:17.120Z,96461.75
2017-11-21T20:11:42.867Z,96464.69
2017-11-21T20:14:12.296Z,96469.48
2017-11-21T20:16:38.035Z,96467.55
2017-11-21T20:19:07.198Z,96462.04
2017-11-21T20:21:32.986Z,96479.48
2017-11-21T20:23:58.742Z,96473.52
2017-11-21T20:26:24.644Z,96467.73
2017-11-21T20:28:50.447Z,96471.52
2017-11-21T20:31:18.156Z,96458.79
2017-11-21T20:33:43.945Z,96457.89
2017-11-21T20:36:13.612Z,96459.41
2017-11-21T20:38:39.428Z,96456.02
2017-11-21T20:41:07.364Z,96461.95
2017-11-21T20:43:33.114Z,96448.14
2017-11-21T20:48:29.696Z,96435.44
2017-11-21T20:50:56.960Z,96427.69
2017-11-21T20:53:22.704Z,96435.84
2017-11-21T20:55:51.692Z,96440.13
2017-11-21T20:58:17.497Z,96440.17
2017-11-21T21:00:43.313Z,96442.33
2017-11-21T21:03:09.096Z,96444.39
2017-11-21T21:05:34.853Z,96451.81
2017-11-21T21:08:03.900Z,96462.12
2017-11-21T21:10:29.668Z,96451.59
2017-11-21T21:12:59.405Z,96450.52
2017-11-21T21:15:25.180Z,96452.08
2017-11-21T21:17:52.655Z,96451.16
2017-11-21T21:20:18.412Z,96454.16
2017-11-21T21:25:15.138Z,96446.84
2017-11-21T21:27:42.549Z,96449.70
2017-11-21T21:30:08.325Z,96448.81
2017-11-21T21:32:37.708Z,96447.23
2017-11-21T21:35:03.475Z,96438.62
2017-11-21T21:37:29.225Z,96444.92
2017-11-21T21:39:54.971Z,96454.07
2017-11-21T21:42:20.741Z,96449.49
2017-11-21T21:44:48.523Z,96440.28
2017-11-21T21:47:14.254Z,96438.61
2017-11-21T21:52:10.913Z,96430.56
2017-11-21T21:54:38.227Z,96437.64
2017-11-21T21:57:03.975Z,96432.80
2017-11-21T21:59:32.670Z,96430.86
2017-11-21T22:01:58.444Z,96434.46
2017-11-21T22:06:54.965Z,96438.61
2017-11-21T22:09:22.773Z,96443.45
2017-11-21T22:11:48.583Z,96438.48
2017-11-21T22:14:14.357Z,96446.87
2017-11-21T22:16:40.139Z,96447.05
2017-11-21T22:19:05.941Z,96443.14
2017-11-21T22:21:35.138Z,96445.11
2017-11-21T22:24:00.916Z,96441.49
2017-11-21T22:26:28.611Z,96447.59
2017-11-21T22:28:54.408Z,96444.09
2017-11-21T22:33:50.918Z,96431.44
2017-11-21T22:36:18.507Z,96430.14
2017-11-21T22:38:44.273Z,96425.74
2017-11-21T22:41:14.036Z,96425.98
2017-11-21T22:43:39.814Z,96435.77
2017-11-21T22:46:07.608Z,96432.53
2017-11-21T22:48:33.376Z,96432.78
2017-11-21T22:50:59.149Z,96432.64
2017-11-21T22:53:24.932Z,96431.83
2017-11-21T22:55:50.768Z,96432.40
2017-11-21T22:58:20.017Z,96427.11
2017-11-21T23:00:45.796Z,96419.56
2017-11-21T23:03:15.252Z,96428.58
2017-11-21T23:05:41.020Z,96427.55
2017-11-21T23:08:08.564Z,96424.86
2017-11-21T23:10:34.352Z,96418.33
2017-11-21T23:13:03.073Z,96426.09
2017-11-21T23:15:28.872Z,96421.65
2017-11-21T23:17:55.500Z,96426.23
2017-11-21T23:20:21.276Z,96426.43
2017-11-21T23:22:47.073Z,96421.55
2017-11-21T23:25:15.991Z,96425.75
2017-11-21T23:27:41.804Z,96428.23
2017-11-21T23:30:10.656Z,96425.47
2017-11-21T23:32:36.444Z,96426.15
2017-11-21T23:35:05.288Z,96424.42
2017-11-21T23:37:31.072Z,96425.86
2017-11-21T23:39:59.855Z,96417.66
2017-11-21T23:42:25.631Z,96422.62
2017-11-21T23:44:54.444Z,96420.52
2017-11-21T23:47:20.205Z,96414.45
2017-11-21T23:49:48.732Z,96413.17
2017-11-21T23:52:14.536Z,96413.88
2017-11-21T23:54:43.275Z,96412.06
2017-11-21T23:57:09.053Z,96407.39
2017-11-21T23:59:35.603Z,96410.73
